Time;durP1;ratioP1;P1;durP2;ratioP2;P2;SDS_P1;SDS_P2;PMS_P1;PMS_P2;Temp;Humidity;BMP_temperature;BMP_pressure;BME280_temperature;BME280_humidity;BME280_pressure;Samples;Min_cycle;Max_cycle;Signal;HPM_P1;HPM_P2
2023/06/10 00:00:14;;;;;;;2.00;1.80;;;;;;;;;;5040638;28;20811;-69
2023/06/10 00:02:44;;;;;;;1.73;1.63;;;;;;;;;;5072109;28;20456;-70
2023/06/10 00:05:11;;;;;;;1.90;1.80;;;;;;;;;;5073629;28;20925;-70
2023/06/10 00:07:38;;;;;;;1.98;1.88;;;17.60;99.90;;;;;;5043569;28;20436;-70
2023/06/10 00:10:06;;;;;;;1.85;1.80;;;17.50;99.90;;;;;;5040788;28;20429;-70
2023/06/10 00:12:36;;;;;;;1.90;1.75;;;17.30;99.90;;;;;;5045032;28;20779;-69
2023/06/10 00:15:05;;;;;;;2.10;1.90;;;17.30;99.90;;;;;;5040229;28;20511;-70
2023/06/10 00:17:32;;;;;;;2.20;2.10;;;17.30;99.90;;;;;;5040772;28;20483;-69
2023/06/10 00:20:04;;;;;;;1.77;1.67;;;17.20;99.90;;;;;;5034155;28;20526;-70
2023/06/10 00:22:32;;;;;;;2.45;2.25;;;17.20;99.90;;;;;;5043152;28;21315;-70
2023/06/10 00:24:59;;;;;;;2.40;2.30;;;17.10;99.90;;;;;;5042167;28;20432;-70
2023/06/10 00:27:31;;;;;;;1.90;1.80;;;17.00;99.90;;;;;;5042515;28;21009;-70
2023/06/10 00:29:58;;;;;;;2.40;2.20;;;16.90;99.90;;;;;;5041385;28;20490;-70
2023/06/10 00:32:24;;;;;;;2.58;2.38;;;16.80;1.00;;;;;;5042680;28;20507;-69
2023/06/10 00:34:51;;;;;;;1.98;1.88;;;16.70;1.00;;;;;;5042987;28;20436;-69
2023/06/10 00:37:18;;;;;;;2.50;1.88;;;16.60;1.00;;;;;;5042320;28;20425;-70
2023/06/10 00:39:45;;;;;;;1.90;1.80;;;16.60;1.00;;;;;;5042784;28;20850;-69
2023/06/10 00:42:11;;;;;;;2.40;2.15;;;16.60;99.10;;;;;;5039749;28;20434;-70
2023/06/10 00:44:38;;;;;;;2.53;2.08;;;16.60;99.90;;;;;;5041517;28;20485;-69
2023/06/10 00:47:06;;;;;;;2.35;2.17;;;16.70;99.90;;;;;;5043144;28;20919;-70
2023/06/10 00:49:33;;;;;;;2.00;1.90;;;16.70;99.90;;;;;;5037997;28;20749;-70
2023/06/10 00:52:02;;;;;;;1.90;1.80;;;16.60;99.90;;;;;;5039206;28;20684;-70
2023/06/10 00:54:29;;;;;;;2.00;1.70;;;16.60;99.90;;;;;;5040284;28;20490;-70
2023/06/10 00:56:57;;;;;;;2.55;1.88;;;16.50;99.90;;;;;;5041936;28;20430;-70
2023/06/10 00:59:25;;;;;;;2.40;2.20;;;16.50;99.90;;;;;;5037274;28;20432;-70
2023/06/10 01:01:52;;;;;;;2.20;2.00;;;16.40;1.00;;;;;;5039627;28;20472;-70
2023/06/10 01:04:19;;;;;;;2.88;2.33;;;16.40;1.00;;;;;;5041512;28;20652;-70
2023/06/10 01:07:12;;;;;;;2.28;2.05;;;16.40;99.90;;;;;;5039712;28;20839;-70
2023/06/10 01:09:52;;;;;;;2.08;1.88;;;16.40;99.90;;;;;;5036674;28;20519;-70
2023/06/10 01:12:39;;;;;;;1.95;1.85;;;16.30;99.90;;;;;;5041359;28;20511;-70
2023/06/10 01:15:09;;;;;;;2.95;2.10;;;16.20;99.90;;;;;;5072903;28;20526;-70
2023/06/10 01:17:57;;;;;;;5.03;2.58;;;16.10;99.90;;;;;;5040434;28;20486;-70
2023/06/10 01:20:27;;;;;;;1.83;1.80;;;16.10;99.90;;;;;;5038430;28;20864;-71
2023/06/10 01:23:02;;;;;;;2.40;2.00;;;16.00;94.40;;;;;;5036494;28;20437;-70
2023/06/10 01:25:32;;;;;;;2.70;2.20;;;15.90;1.00;;;;;;5030037;28;20431;-71
2023/06/10 01:28:35;;;;;;;2.25;2.05;;;15.80;55.90;;;;;;5039680;28;20637;-70
2023/06/10 01:31:33;;;;;;;2.17;2.00;;;15.80;99.90;;;;;;5028851;28;20433;-70
2023/06/10 01:34:02;;;;;;;2.65;2.30;;;15.70;1.00;;;;;;5039178;28;20456;-70
2023/06/10 01:36:31;;;;;;;3.55;2.42;;;15.60;95.90;;;;;;5041792;28;20437;-70
2023/06/10 01:39:02;;;;;;;2.23;1.87;;;15.60;99.90;;;;;;5036592;28;20549;-70
2023/06/10 01:41:29;;;;;;;2.90;2.38;;;15.50;1.00;;;;;;5039830;28;20950;-70
2023/06/10 01:43:56;;;;;;;2.05;1.95;;;15.40;99.90;;;;;;5041277;28;20429;-70
2023/06/10 01:46:23;;;;;;;3.58;1.83;;;15.40;1.00;;;;;;5038901;28;21083;-71
2023/06/10 01:48:50;;;;;;;2.65;2.45;;;15.40;1.00;;;;;;5041261;28;20429;-70
2023/06/10 01:51:20;;;;;;;2.30;2.10;;;15.30;1.00;;;;;;5040488;28;20850;-70
2023/06/10 01:53:46;;;;;;;3.00;2.50;;;15.30;99.90;;;;;;5040725;28;20530;-70
2023/06/10 01:56:17;;;;;;;1.85;1.75;;;15.20;99.90;;;;;;5040146;28;20457;-70
2023/06/10 01:58:45;;;;;;;2.30;2.15;;;15.20;1.00;;;;;;5069588;28;20521;-70
2023/06/10 02:01:12;;;;;;;3.08;2.60;;;15.20;99.90;;;;;;5036817;28;20447;-70
2023/06/10 02:03:39;;;;;;;2.05;1.95;;;15.20;72.80;;;;;;5040737;28;20448;-70
2023/06/10 02:06:06;;;;;;;2.97;2.35;;;15.20;99.90;;;;;;5040708;28;20464;-70
2023/06/10 02:08:33;;;;;;;2.00;1.87;;;15.20;99.90;;;;;;5037928;28;20436;-70
2023/06/10 02:10:59;;;;;;;2.85;1.95;;;15.20;99.90;;;;;;5042039;28;20433;-70
2023/06/10 02:13:26;;;;;;;2.30;2.10;;;15.20;99.90;;;;;;5039855;28;20440;-70
2023/06/10 02:15:54;;;;;;;2.63;2.42;;;15.30;99.90;;;;;;5042367;28;20428;-70
2023/06/10 02:18:21;;;;;;;2.17;1.98;;;15.30;32.20;;;;;;5072778;28;20439;-70
2023/06/10 02:20:50;;;;;;;1.77;1.67;;;15.30;79.20;;;;;;5072247;28;20425;-70
2023/06/10 02:23:17;;;;;;;2.15;2.05;;;15.30;53.00;;;;;;5039858;28;21002;-70
2023/06/10 02:25:44;;;;;;;3.40;2.53;;;15.30;1.00;;;;;;5038261;28;20513;-70
2023/06/10 02:28:11;;;;;;;2.92;1.70;;;15.20;1.00;;;;;;5039135;28;20433;-70
2023/06/10 02:30:42;;;;;;;2.13;2.00;;;15.20;1.00;;;;;;5040549;28;20971;-70
2023/06/10 02:33:12;;;;;;;2.40;2.20;;;15.20;99.90;;;;;;5039260;28;20532;-70
2023/06/10 02:35:41;;;;;;;3.33;2.33;;;15.20;56.60;;;;;;5036869;28;20429;-70
2023/06/10 02:38:08;;;;;;;2.10;2.00;;;15.30;99.90;;;;;;5038620;28;20520;-70
2023/06/10 02:40:37;;;;;;;2.28;2.13;;;15.20;1.00;;;;;;5040214;28;20429;-71
2023/06/10 02:43:03;;;;;;;2.28;2.13;;;15.20;32.10;;;;;;5069579;28;20478;-70
2023/06/10 02:45:30;;;;;;;2.25;2.05;;;15.20;99.90;;;;;;5040568;28;20498;-70
2023/06/10 02:47:57;;;;;;;2.15;1.92;;;15.10;32.00;;;;;;5040519;28;20777;-70
2023/06/10 02:50:24;;;;;;;2.45;2.25;;;15.00;99.90;;;;;;5038661;28;21166;-70
2023/06/10 02:52:51;;;;;;;2.25;2.05;;;14.90;99.90;;;;;;5038700;28;20445;-71
2023/06/10 02:55:21;;;;;;;2.25;2.15;;;14.90;1.00;;;;;;5035533;28;20429;-70
2023/06/10 02:57:47;;;;;;;2.60;2.40;;;14.80;99.90;;;;;;5034929;28;20429;-70
2023/06/10 03:00:15;;;;;;;2.70;2.22;;;14.80;99.90;;;;;;5037555;28;20521;-70
2023/06/10 03:02:42;;;;;;;2.35;2.15;;;14.80;1.00;;;;;;5036270;28;20433;-70
2023/06/10 03:05:09;;;;;;;2.72;1.90;;;14.90;1.00;;;;;;5041291;28;20819;-71
2023/06/10 03:07:37;;;;;;;2.22;2.13;;;14.80;1.00;;;;;;5040287;28;20538;-70
2023/06/10 03:10:05;;;;;;;2.15;1.95;;;14.80;1.00;;;;;;5038382;28;20475;-70
2023/06/10 03:12:32;;;;;;;1.77;1.67;;;14.80;1.00;;;;;;5043080;28;20786;-70
2023/06/10 03:14:58;;;;;;;2.17;2.03;;;14.80;1.00;;;;;;5037845;28;20483;-70
2023/06/10 03:17:32;;;;;;;2.42;2.20;;;14.70;1.00;;;;;;5038926;28;21045;-70
2023/06/10 03:19:58;;;;;;;4.43;2.08;;;14.70;1.00;;;;;;5037838;28;20612;-70
2023/06/10 03:22:28;;;;;;;2.30;2.20;;;14.80;1.00;;;;;;5038482;28;20919;-70
2023/06/10 03:24:57;;;;;;;2.25;2.15;;;14.80;1.00;;;;;;5035017;28;20826;-70
2023/06/10 03:27:24;;;;;;;2.10;2.00;;;14.90;1.00;;;;;;5028336;28;20974;-70
2023/06/10 03:29:53;;;;;;;2.67;2.42;;;15.00;99.90;;;;;;5032286;28;20490;-70
2023/06/10 03:32:20;;;;;;;2.10;2.00;;;15.20;99.90;;;;;;5037334;28;20989;-70
2023/06/10 03:34:47;;;;;;;1.90;1.80;;;15.20;1.00;;;;;;5037498;28;20912;-70
2023/06/10 03:37:14;;;;;;;2.30;2.08;;;15.30;99.90;;;;;;5040310;28;20437;-70
2023/06/10 03:39:41;;;;;;;2.20;2.05;;;15.30;99.90;;;;;;5036952;28;20425;-70
2023/06/10 03:42:08;;;;;;;2.05;1.95;;;15.30;1.00;;;;;;5037751;28;20487;-69
2023/06/10 03:44:38;;;;;;;2.35;2.15;;;15.30;99.90;;;;;;5037701;28;20801;-69
2023/06/10 03:47:05;;;;;;;2.37;2.20;;;15.30;99.90;;;;;;5035938;28;20436;-70
2023/06/10 03:49:33;;;;;;;1.98;1.88;;;15.40;99.90;;;;;;5038774;28;20941;-70
2023/06/10 03:51:59;;;;;;;1.92;1.83;;;15.40;99.90;;;;;;5039833;28;20831;-70
2023/06/10 03:54:26;;;;;;;2.58;2.13;;;15.40;42.90;;;;;;5038095;28;20486;-70
2023/06/10 03:56:53;;;;;;;2.17;1.90;;;15.40;1.00;;;;;;5039082;28;20465;-70
2023/06/10 03:59:22;;;;;;;1.67;1.58;;;15.40;1.00;;;;;;5038302;28;20792;-70
2023/06/10 04:01:48;;;;;;;2.78;2.03;;;15.60;99.90;;;;;;5035555;28;20464;-70
2023/06/10 04:04:23;;;;;;;1.80;1.70;;;15.70;1.00;;;;;;5038761;28;20433;-70
2023/06/10 04:06:50;;;;;;;1.52;1.42;;;15.70;99.90;;;;;;5038323;28;20463;-70
2023/06/10 04:09:17;;;;;;;1.63;1.52;;;15.80;99.90;;;;;;5036700;28;20433;-70
2023/06/10 04:11:44;;;;;;;2.50;2.15;;;15.90;61.00;;;;;;5041069;28;20487;-70
2023/06/10 04:14:13;;;;;;;1.63;1.52;;;15.90;1.00;;;;;;5038949;28;20456;-71
2023/06/10 04:16:42;;;;;;;1.50;1.40;;;16.00;1.00;;;;;;5036418;28;20777;-70
2023/06/10 04:19:09;;;;;;;1.60;1.52;;;16.00;1.00;;;;;;5036050;28;20952;-70
2023/06/10 04:21:35;;;;;;;1.88;1.77;;;16.10;1.00;;;;;;5042422;28;20538;-70
2023/06/10 04:24:02;;;;;;;2.30;1.95;;;16.20;1.00;;;;;;5041586;28;20432;-70
2023/06/10 04:26:29;;;;;;;1.60;1.57;;;16.20;99.90;;;;;;5042874;28;20437;-70
2023/06/10 04:28:56;;;;;;;1.73;1.70;;;16.30;99.90;;;;;;5039151;28;20472;-70
2023/06/10 04:31:23;;;;;;;2.30;1.90;;;16.40;99.90;;;;;;5041216;28;20512;-70
2023/06/10 04:33:50;;;;;;;2.42;1.75;;;16.60;99.90;;;;;;5037607;28;20758;-70
2023/06/10 04:36:16;;;;;;;2.10;2.00;;;16.70;99.90;;;;;;5039709;28;20683;-70
2023/06/10 04:38:43;;;;;;;2.85;1.83;;;16.80;5.20;;;;;;5039417;28;20441;-70
2023/06/10 04:41:10;;;;;;;2.15;2.05;;;16.90;40.30;;;;;;5040153;28;21234;-70
2023/06/10 04:43:37;;;;;;;1.80;1.70;;;17.50;1.00;;;;;;5037890;28;20437;-70
2023/06/10 04:46:04;;;;;;;1.98;1.88;;;18.20;1.00;;;;;;5042435;28;20441;-70
2023/06/10 04:48:35;;;;;;;2.00;1.80;;;19.10;99.90;;;;;;5040647;28;20429;-70
2023/06/10 04:51:02;;;;;;;2.20;2.10;;;19.80;99.90;;;;;;5041106;28;20437;-70
2023/06/10 04:53:29;;;;;;;2.30;2.13;;;20.40;99.90;;;;;;5039263;28;20472;-70
2023/06/10 04:55:57;;;;;;;2.63;2.03;;;20.90;99.90;;;;;;5042207;28;21008;-70
2023/06/10 04:58:26;;;;;;;2.90;2.20;;;21.30;99.90;;;;;;5040232;28;20457;-70
2023/06/10 05:00:53;;;;;;;1.88;1.77;;;21.70;99.90;;;;;;5039939;28;20425;-70
2023/06/10 05:03:20;;;;;;;2.27;2.17;;;22.20;99.90;;;;;;5041583;28;20896;-70
2023/06/10 05:05:46;;;;;;;1.92;1.83;;;22.60;99.90;;;;;;5038573;28;20575;-71
2023/06/10 05:08:13;;;;;;;1.80;1.70;;;23.10;99.90;;;;;;5043289;28;20718;-71
2023/06/10 05:10:40;;;;;;;1.75;1.65;;;23.50;99.90;;;;;;5042582;28;20433;-70
2023/06/10 05:13:07;;;;;;;1.92;1.83;;;23.80;99.90;;;;;;5040582;28;20432;-71
2023/06/10 05:15:37;;;;;;;3.78;2.25;;;24.30;99.90;;;;;;5041599;28;20453;-70
2023/06/10 05:18:04;;;;;;;2.35;2.20;;;24.70;99.90;;;;;;5056294;28;20429;-71
2023/06/10 05:20:31;;;;;;;2.10;2.00;;;25.10;99.90;;;;;;5042907;28;20507;-71
2023/06/10 05:22:58;;;;;;;2.10;2.00;;;25.20;99.90;;;;;;5039564;28;20430;-71
2023/06/10 05:25:27;;;;;;;2.40;2.22;;;25.30;99.90;;;;;;5042318;28;20464;-70
2023/06/10 05:27:53;;;;;;;3.00;2.00;;;25.30;99.90;;;;;;5069619;28;20466;-70
2023/06/10 05:30:21;;;;;;;2.00;1.90;;;25.30;99.90;;;;;;5058617;28;20470;-70
2023/06/10 05:32:48;;;;;;;2.25;1.75;;;25.50;99.90;;;;;;5036598;28;20470;-71
2023/06/10 05:35:15;;;;;;;2.10;2.00;;;25.40;99.90;;;;;;5041935;28;20437;-70
2023/06/10 05:37:45;;;;;;;1.85;1.75;;;25.30;99.90;;;;;;5041016;28;20587;-70
2023/06/10 05:40:12;;;;;;;2.00;1.90;;;25.50;99.90;;;;;;5039874;28;20812;-71
2023/06/10 05:42:38;;;;;;;3.08;1.85;;;25.70;99.90;;;;;;5039655;28;20437;-70
2023/06/10 05:45:06;;;;;;;2.00;1.90;;;26.10;99.90;;;;;;5073151;28;20513;-71
2023/06/10 05:47:34;;;;;;;2.70;1.77;;;26.20;99.90;;;;;;5071369;28;20509;-71
2023/06/10 05:50:01;;;;;;;2.27;2.10;;;26.20;99.90;;;;;;5041120;28;20893;-70
2023/06/10 05:52:28;;;;;;;1.90;1.80;;;26.20;99.90;;;;;;5073849;28;20471;-70
2023/06/10 05:54:57;;;;;;;2.38;2.17;;;26.50;99.90;;;;;;5037808;28;20541;-71
2023/06/10 05:57:26;;;;;;;1.87;1.77;;;26.50;99.90;;;;;;5041005;28;20433;-71
2023/06/10 05:59:55;;;;;;;1.80;1.70;;;26.90;99.90;;;;;;5041731;28;20443;-71
2023/06/10 06:02:23;;;;;;;1.67;1.58;;;26.80;99.90;;;;;;5038744;28;20915;-70
2023/06/10 06:04:49;;;;;;;4.72;2.10;;;26.80;99.90;;;;;;5037594;28;20486;-70
2023/06/10 06:07:16;;;;;;;2.00;1.90;;;26.80;99.90;;;;;;5040500;28;20529;-70
2023/06/10 06:09:43;;;;;;;2.03;1.92;;;26.80;99.90;;;;;;5037545;28;20504;-71
2023/06/10 06:12:11;;;;;;;4.30;1.90;;;27.20;99.90;;;;;;5077087;28;20460;-71
2023/06/10 06:14:41;;;;;;;1.90;1.80;;;27.10;99.90;;;;;;5037013;28;20576;-71
2023/06/10 06:17:07;;;;;;;1.85;1.75;;;27.20;99.90;;;;;;5040742;28;20486;-71
2023/06/10 06:19:34;;;;;;;1.60;1.58;;;27.00;99.90;;;;;;5040268;28;21123;-70
2023/06/10 06:22:02;;;;;;;1.63;1.53;;;27.00;99.90;;;;;;5037404;28;20803;-70
2023/06/10 06:24:29;;;;;;;1.95;1.85;;;27.10;99.90;;;;;;5037755;28;20433;-70
2023/06/10 06:26:56;;;;;;;1.83;1.63;;;27.00;99.90;;;;;;5032917;28;20483;-71
2023/06/10 06:29:22;;;;;;;1.60;1.50;;;27.60;99.90;;;;;;5037740;28;20515;-71
2023/06/10 06:31:49;;;;;;;1.48;1.48;;;27.70;99.90;;;;;;5066623;28;20432;-70
2023/06/10 06:34:17;;;;;;;1.50;1.45;;;28.00;99.90;;;;;;5035061;28;20425;-70
2023/06/10 06:36:45;;;;;;;1.70;1.60;;;27.80;99.90;;;;;;5035949;28;20989;-71
2023/06/10 06:39:12;;;;;;;1.90;1.80;;;28.30;99.90;;;;;;5064402;28;20992;-71
2023/06/10 06:41:38;;;;;;;1.83;1.73;;;28.60;99.90;;;;;;5033637;28;20437;-70
2023/06/10 06:44:05;;;;;;;1.58;1.45;;;28.30;99.90;;;;;;5034281;28;20437;-71
2023/06/10 06:46:32;;;;;;;1.70;1.60;;;28.30;99.90;;;;;;5035235;28;20527;-71
2023/06/10 06:48:58;;;;;;;1.77;1.67;;;28.20;99.90;;;;;;5035524;28;20445;-70
2023/06/10 06:51:25;;;;;;;3.05;2.00;;;28.30;99.90;;;;;;5037360;28;20873;-70
2023/06/10 06:53:54;;;;;;;2.20;1.75;;;28.30;99.90;;;;;;5037387;28;21192;-71
2023/06/10 06:56:21;;;;;;;2.10;2.00;;;28.00;99.90;;;;;;5066617;28;20437;-71
2023/06/10 06:58:48;;;;;;;1.45;1.45;;;28.10;99.90;;;;;;5037128;28;20433;-70
2023/06/10 07:01:14;;;;;;;4.97;2.05;;;28.30;99.90;;;;;;5036137;28;20461;-70
2023/06/10 07:03:44;;;;;;;2.13;1.92;;;28.10;99.90;;;;;;5037478;28;20945;-71
2023/06/10 07:06:13;;;;;;;1.58;1.48;;;28.30;99.90;;;;;;5038106;28;20431;-70
2023/06/10 07:08:39;;;;;;;1.75;1.65;;;28.70;99.90;;;;;;5037398;28;20487;-71
2023/06/10 07:11:06;;;;;;;1.90;1.73;;;28.80;99.90;;;;;;5039373;28;20461;-70
2023/06/10 07:13:33;;;;;;;1.65;1.50;;;28.80;99.90;;;;;;5036820;28;20456;-71
2023/06/10 07:15:59;;;;;;;1.77;1.67;;;28.60;99.90;;;;;;5034412;28;21101;-70
2023/06/10 07:18:26;;;;;;;1.58;1.48;;;29.30;99.90;;;;;;5033949;28;20594;-71
2023/06/10 07:20:53;;;;;;;2.30;1.97;;;29.60;99.90;;;;;;5037293;28;20450;-70
2023/06/10 07:23:20;;;;;;;2.20;2.00;;;29.70;99.90;;;;;;5035749;28;20429;-71
2023/06/10 07:25:50;;;;;;;1.58;1.48;;;29.80;99.90;;;;;;5067742;28;20424;-70
2023/06/10 07:28:16;;;;;;;1.90;1.80;;;30.10;99.90;;;;;;5033103;28;20470;-70
2023/06/10 07:30:43;;;;;;;2.20;2.00;;;30.50;99.90;;;;;;5033046;28;20520;-70
2023/06/10 07:33:10;;;;;;;1.47;1.43;;;30.10;99.90;;;;;;5060564;28;20465;-70
2023/06/10 07:35:38;;;;;;;1.80;1.70;;;29.80;99.90;;;;;;5034307;28;20853;-71
2023/06/10 07:38:04;;;;;;;1.77;1.67;;;29.90;99.90;;;;;;5033273;28;20595;-71
2023/06/10 07:40:31;;;;;;;2.00;1.90;;;29.90;99.90;;;;;;5031542;28;21866;-71
2023/06/10 07:43:01;;;;;;;2.00;1.87;;;30.00;99.90;;;;;;5035642;28;20439;-70
2023/06/10 07:45:27;;;;;;;1.95;1.85;;;29.80;99.90;;;;;;5033097;28;20454;-71
2023/06/10 07:47:54;;;;;;;1.83;1.70;;;28.80;99.90;;;;;;5037269;28;20441;-71
2023/06/10 07:50:21;;;;;;;1.88;1.77;;;29.20;99.90;;;;;;5034121;28;20438;-71
2023/06/10 07:52:48;;;;;;;2.03;1.92;;;29.50;99.90;;;;;;5036106;28;20510;-71
2023/06/10 07:55:15;;;;;;;5.53;2.17;;;29.80;99.90;;;;;;5038568;28;20979;-70
2023/06/10 07:57:42;;;;;;;4.50;1.83;;;30.20;99.90;;;;;;5037959;28;20469;-71
2023/06/10 08:00:09;;;;;;;1.80;1.70;;;30.60;99.90;;;;;;5035455;28;20425;-70
2023/06/10 08:02:37;;;;;;;2.20;2.00;;;30.80;99.90;;;;;;5067750;28;20456;-70
2023/06/10 08:05:04;;;;;;;2.95;2.13;;;30.90;99.90;;;;;;5039162;28;20429;-70
2023/06/10 08:07:31;;;;;;;1.77;1.67;;;31.20;99.90;;;;;;5038294;28;20437;-70
2023/06/10 08:10:07;;;;;;;1.70;1.60;;;30.90;99.90;;;;;;5038734;28;20986;-70
2023/06/10 08:12:34;;;;;;;2.03;1.93;;;31.30;99.90;;;;;;5042977;28;20433;-70
2023/06/10 08:15:04;;;;;;;2.00;1.90;;;31.50;99.90;;;;;;5035553;28;20448;-70
2023/06/10 08:17:31;;;;;;;2.30;2.20;;;31.50;99.90;;;;;;5036950;28;20428;-71
2023/06/10 08:19:57;;;;;;;1.87;1.77;;;31.50;99.90;;;;;;5040011;28;20429;-70
2023/06/10 08:22:24;;;;;;;1.90;1.80;;;31.60;99.90;;;;;;5037318;28;20479;-70
2023/06/10 08:24:51;;;;;;;1.98;1.88;;;31.00;99.90;;;;;;5037588;28;20437;-70
2023/06/10 08:27:18;;;;;;;2.20;2.00;;;30.80;99.90;;;;;;5033570;28;20438;-70
2023/06/10 08:29:45;;;;;;;3.47;1.75;;;31.00;99.90;;;;;;5037011;28;20447;-70
2023/06/10 08:32:11;;;;;;;1.92;1.83;;;31.40;99.90;;;;;;5035743;28;20433;-71
2023/06/10 08:34:39;;;;;;;1.80;1.70;;;31.60;99.90;;;;;;5035882;28;20515;-70
2023/06/10 08:37:06;;;;;;;2.20;1.93;;;31.60;99.90;;;;;;5037800;28;20501;-70
2023/06/10 08:39:33;;;;;;;2.30;2.08;;;31.80;99.90;;;;;;5037491;28;20429;-70
2023/06/10 08:42:19;;;;;;;1.87;1.83;;;31.60;99.90;;;;;;5038064;28;20425;-70
2023/06/10 08:44:46;;;;;;;1.90;1.80;;;31.60;99.90;;;;;;5038869;28;20571;-70
2023/06/10 08:47:20;;;;;;;1.85;1.75;;;31.60;99.90;;;;;;5037608;28;20802;-71
2023/06/10 08:49:47;;;;;;;2.50;1.80;;;31.30;99.90;;;;;;5068529;28;20455;-70
2023/06/10 08:52:21;;;;;;;2.00;1.90;;;30.70;99.90;;;;;;5036689;28;20931;-70
2023/06/10 08:55:10;;;;;;;2.17;2.08;;;30.30;99.90;;;;;;5041788;28;20981;-71
2023/06/10 08:57:37;;;;;;;2.17;2.03;;;30.50;99.90;;;;;;5041077;28;20437;-70
2023/06/10 09:00:08;;;;;;;2.88;1.80;;;30.50;99.90;;;;;;5037134;28;20516;-71
2023/06/10 09:02:36;;;;;;;2.08;1.98;;;30.70;99.90;;;;;;5034727;28;20539;-70
2023/06/10 09:05:04;;;;;;;2.05;1.95;;;30.90;99.90;;;;;;5062464;28;20489;-70
2023/06/10 09:07:35;;;;;;;2.30;2.10;;;30.90;99.90;;;;;;5035258;28;20487;-70
2023/06/10 09:10:06;;;;;;;2.03;1.92;;;31.40;99.90;;;;;;5037244;28;20499;-70
2023/06/10 09:12:40;;;;;;;2.20;2.00;;;31.40;99.90;;;;;;5039174;28;20588;-70
2023/06/10 09:15:12;;;;;;;2.13;1.92;;;30.90;99.90;;;;;;5037011;28;20437;-70
2023/06/10 09:17:40;;;;;;;1.70;1.70;;;31.50;99.90;;;;;;5038212;28;21498;-70
2023/06/10 09:20:08;;;;;;;2.00;1.65;;;31.90;99.90;;;;;;5038001;28;20429;-71
2023/06/10 09:22:37;;;;;;;1.92;1.83;;;31.80;99.90;;;;;;5038619;28;20789;-71
2023/06/10 09:25:11;;;;;;;1.87;1.77;;;31.80;99.90;;;;;;5042737;28;20970;-71
2023/06/10 09:27:50;;;;;;;2.20;1.90;;;31.50;99.90;;;;;;5068426;28;20432;-71
2023/06/10 09:30:28;;;;;;;1.83;1.73;;;31.70;99.90;;;;;;5037141;28;20520;-71
2023/06/10 09:32:57;;;;;;;2.08;1.95;;;31.40;99.90;;;;;;5034008;28;20524;-71
2023/06/10 09:35:28;;;;;;;2.55;1.85;;;31.50;99.90;;;;;;5037432;28;20444;-71
2023/06/10 09:38:03;;;;;;;2.03;2.00;;;31.60;99.90;;;;;;5033209;28;20429;-71
2023/06/10 09:40:49;;;;;;;2.38;2.22;;;31.10;99.90;;;;;;5053516;28;20434;-72
2023/06/10 09:43:16;;;;;;;2.03;1.92;;;31.10;99.90;;;;;;5064062;28;20475;-71
2023/06/10 09:45:48;;;;;;;2.10;2.00;;;31.20;99.90;;;;;;5052175;28;20433;-71
2023/06/10 09:48:15;;;;;;;4.20;2.10;;;31.50;99.90;;;;;;5040927;28;20433;-71
2023/06/10 09:50:45;;;;;;;1.80;1.70;;;31.70;99.90;;;;;;5039941;28;20508;-71
2023/06/10 09:53:12;;;;;;;2.00;1.90;;;32.00;99.90;;;;;;5040050;28;20445;-71
2023/06/10 09:55:41;;;;;;;2.17;2.08;;;31.20;99.90;;;;;;5032831;28;20437;-71
2023/06/10 09:58:10;;;;;;;2.17;1.98;;;30.50;99.90;;;;;;5038580;28;20437;-70
2023/06/10 10:00:37;;;;;;;2.58;2.20;;;30.80;99.90;;;;;;5032862;28;20900;-70
2023/06/10 10:03:06;;;;;;;1.85;1.75;;;30.70;99.90;;;;;;5036566;28;20429;-70
2023/06/10 10:05:33;;;;;;;1.70;1.60;;;30.60;99.90;;;;;;5041089;28;20492;-70
2023/06/10 10:08:00;;;;;;;1.88;1.75;;;30.00;99.90;;;;;;5071241;28;20439;-71
2023/06/10 10:10:27;;;;;;;1.97;1.80;;;29.50;99.90;;;;;;5038673;28;20847;-71
2023/06/10 10:12:56;;;;;;;3.05;1.77;;;29.30;99.90;;;;;;5040377;28;21076;-70
2023/06/10 10:15:28;;;;;;;2.13;2.03;;;30.10;99.90;;;;;;5040191;28;20784;-71
2023/06/10 10:18:09;;;;;;;2.13;1.95;;;30.50;99.90;;;;;;5039510;28;20429;-70
2023/06/10 10:20:46;;;;;;;2.03;1.92;;;30.70;99.90;;;;;;5037215;28;21065;-71
2023/06/10 10:23:18;;;;;;;2.03;1.93;;;30.40;99.90;;;;;;5071907;28;20726;-71
2023/06/10 10:25:51;;;;;;;1.60;1.60;;;30.60;99.90;;;;;;5038478;28;20437;-71
2023/06/10 10:28:21;;;;;;;2.17;1.85;;;30.60;99.90;;;;;;5033462;28;20572;-72
2023/06/10 10:30:54;;;;;;;1.88;1.77;;;31.00;99.90;;;;;;5039937;28;20943;-71
2023/06/10 10:33:44;;;;;;;2.13;1.93;;;31.50;99.90;;;;;;5037636;28;20519;-72
2023/06/10 10:36:11;;;;;;;2.72;1.90;;;31.30;99.90;;;;;;5034411;28;20495;-71
2023/06/10 10:38:39;;;;;;;1.75;1.65;;;31.00;99.90;;;;;;5040738;28;20437;-72
2023/06/10 10:41:09;;;;;;;1.92;1.83;;;31.30;99.90;;;;;;5037320;28;20425;-71
2023/06/10 10:43:41;;;;;;;1.53;1.43;;;31.60;99.90;;;;;;5040207;28;20514;-71
2023/06/10 10:46:13;;;;;;;1.90;1.75;;;31.70;99.90;;;;;;5037812;28;20431;-71
2023/06/10 10:48:43;;;;;;;1.90;1.80;;;31.90;99.90;;;;;;5039181;28;20455;-71
2023/06/10 10:51:10;;;;;;;2.10;2.00;;;31.90;99.90;;;;;;5039147;28;20429;-70
2023/06/10 10:53:38;;;;;;;1.80;1.70;;;31.20;99.90;;;;;;5037951;28;20498;-71
2023/06/10 10:56:14;;;;;;;2.22;2.10;;;30.80;99.90;;;;;;5035655;28;20433;-73
2023/06/10 10:58:41;;;;;;;1.92;1.83;;;30.90;99.90;;;;;;5039652;28;20453;-71
2023/06/10 11:01:12;;;;;;;1.60;1.60;;;30.70;99.90;;;;;;5037426;28;21223;-71
2023/06/10 11:03:49;;;;;;;2.10;1.90;;;30.30;99.90;;;;;;5035302;28;21720;-71
2023/06/10 11:06:17;;;;;;;2.03;1.88;;;30.60;99.90;;;;;;5071774;28;20758;-71
2023/06/10 11:08:46;;;;;;;2.47;2.15;;;31.10;99.90;;;;;;5036692;28;20505;-70
2023/06/10 11:11:21;;;;;;;2.20;2.10;;;31.00;99.90;;;;;;5043323;28;20456;-70
2023/06/10 11:14:04;;;;;;;2.40;1.75;;;31.20;99.90;;;;;;5033934;28;20523;-71
2023/06/10 11:16:39;;;;;;;1.92;1.73;;;31.50;99.90;;;;;;5039113;28;20441;-71
2023/06/10 11:19:06;;;;;;;2.92;1.90;;;32.00;99.90;;;;;;5038587;28;20433;-72
2023/06/10 11:21:56;;;;;;;1.83;1.73;;;32.40;99.90;;;;;;5037618;28;21143;-72
2023/06/10 11:24:26;;;;;;;1.80;1.70;;;33.10;99.90;;;;;;5036232;28;20959;-72
2023/06/10 11:26:53;;;;;;;1.90;1.80;;;33.30;99.90;;;;;;5069388;28;20433;-72
2023/06/10 11:29:20;;;;;;;1.80;1.77;;;33.20;99.90;;;;;;5042513;28;20843;-72
2023/06/10 11:31:51;;;;;;;2.95;1.63;;;33.20;99.90;;;;;;5042800;28;20974;-72
2023/06/10 11:34:26;;;;;;;1.63;1.63;;;32.90;99.90;;;;;;5041621;28;20461;-71
2023/06/10 11:36:57;;;;;;;1.75;1.65;;;32.70;99.90;;;;;;5040250;28;20448;-71
2023/06/10 11:39:26;;;;;;;1.60;1.50;;;32.40;99.90;;;;;;5034842;28;20507;-71
2023/06/10 11:41:53;;;;;;;1.52;1.52;;;32.00;99.90;;;;;;5040283;28;20436;-71
2023/06/10 11:44:20;;;;;;;2.08;1.60;;;32.10;99.90;;;;;;5040643;28;20864;-71
2023/06/10 11:46:48;;;;;;;1.35;1.35;;;32.90;99.90;;;;;;5043654;28;20437;-71
2023/06/10 11:49:15;;;;;;;2.33;1.52;;;33.70;99.90;;;;;;5037878;28;20433;-71
2023/06/10 11:51:48;;;;;;;1.33;1.33;;;33.60;99.90;;;;;;5043150;28;20444;-71
2023/06/10 11:54:17;;;;;;;1.70;1.60;;;33.60;99.90;;;;;;5040495;28;20511;-70
2023/06/10 11:56:44;;;;;;;1.80;1.67;;;32.90;99.90;;;;;;5041113;28;20435;-71
2023/06/10 11:59:10;;;;;;;1.42;1.42;;;32.40;99.90;;;;;;5040028;28;20528;-71
2023/06/10 12:01:42;;;;;;;1.80;1.70;;;31.60;99.90;;;;;;5040102;28;20438;-71
2023/06/10 12:04:18;;;;;;;1.23;1.23;;;31.30;99.90;;;;;;5041481;28;20460;-72
2023/06/10 12:06:51;;;;;;;1.60;1.50;;;31.70;99.90;;;;;;5039959;28;20443;-71
2023/06/10 12:09:26;;;;;;;1.92;1.83;;;32.10;99.90;;;;;;5041173;28;20433;-71
2023/06/10 12:12:02;;;;;;;1.13;1.13;;;32.30;99.90;;;;;;5044964;28;20459;-71
2023/06/10 12:14:59;;;;;;;1.33;1.23;;;32.10;99.90;;;;;;5042799;28;20463;-71
2023/06/10 12:17:33;;;;;;;1.40;1.30;;;31.70;99.90;;;;;;5041055;28;20429;-70
2023/06/10 12:20:04;;;;;;;1.60;1.50;;;31.00;99.90;;;;;;5072255;28;20546;-70
2023/06/10 12:22:37;;;;;;;1.20;1.10;;;31.00;99.90;;;;;;5043877;28;20892;-71
2023/06/10 12:25:06;;;;;;;1.20;1.10;;;31.50;99.90;;;;;;5042217;28;20428;-71
2023/06/10 12:27:37;;;;;;;0.85;0.85;;;32.40;99.90;;;;;;5041001;28;21205;-71
2023/06/10 12:30:08;;;;;;;1.30;1.20;;;33.00;99.90;;;;;;5072176;28;22079;-71
2023/06/10 12:32:45;;;;;;;1.45;1.45;;;33.80;99.90;;;;;;5042211;28;21020;-71
2023/06/10 12:35:17;;;;;;;2.70;1.30;;;32.90;99.90;;;;;;5041044;28;20864;-71
2023/06/10 12:38:01;;;;;;;1.13;1.13;;;32.50;99.90;;;;;;5041300;28;20425;-70
2023/06/10 12:40:29;;;;;;;1.65;1.45;;;32.40;99.90;;;;;;5039914;28;20478;-70
2023/06/10 12:43:01;;;;;;;1.30;1.30;;;31.70;99.90;;;;;;5040892;28;20433;-71
2023/06/10 12:45:31;;;;;;;1.38;1.38;;;30.90;99.90;;;;;;5039405;28;20532;-70
2023/06/10 12:48:08;;;;;;;1.30;1.30;;;30.30;99.90;;;;;;5070865;28;20433;-71
2023/06/10 12:50:56;;;;;;;1.47;1.37;;;30.70;99.90;;;;;;5036240;28;20491;-71
2023/06/10 12:53:24;;;;;;;1.48;1.30;;;31.50;99.90;;;;;;5040156;28;20490;-72
2023/06/10 12:55:51;;;;;;;1.38;1.27;;;31.90;99.90;;;;;;5073269;28;20464;-72
2023/06/10 12:58:20;;;;;;;1.40;1.30;;;32.00;99.90;;;;;;5071124;28;20966;-72